sensor_id;sensor_type;location;lat;lon;timestamp;pressure;altitude;pressure_sealevel;temperature;humidity
52319;BME280;38258;51.148;14.068;2023-11-21T00:01:06;97604.34;;;2.80;100.00
52319;BME280;38258;51.148;14.068;2023-11-21T00:03:35;97602.50;;;2.93;100.00
52319;BME280;38258;51.148;14.068;2023-11-21T00:06:02;97605.66;;;3.21;100.00
52319;BME280;38258;51.148;14.068;2023-11-21T00:08:30;97602.34;;;3.07;100.00
52319;BME280;38258;51.148;14.068;2023-11-21T00:10:56;97610.16;;;3.02;100.00
52319;BME280;38258;51.148;14.068;2023-11-21T00:13:23;97605.06;;;2.96;100.00
52319;BME280;38258;51.148;14.068;2023-11-21T00:15:50;97612.75;;;3.01;100.00
52319;BME280;38258;51.148;14.068;2023-11-21T00:18:17;97609.28;;;3.03;100.00
52319;BME280;38258;51.148;14.068;2023-11-21T00:20:45;97599.81;;;3.02;100.00
52319;BME280;38258;51.148;14.068;2023-11-21T00:23:12;97599.78;;;3.05;100.00
52319;BME280;38258;51.148;14.068;2023-11-21T00:25:38;97601.41;;;3.14;100.00
52319;BME280;38258;51.148;14.068;2023-11-21T00:28:05;97596.19;;;3.19;100.00
52319;BME280;38258;51.148;14.068;2023-11-21T00:30:32;97601.22;;;3.33;100.00
52319;BME280;38258;51.148;14.068;2023-11-21T00:32:59;97601.91;;;3.47;100.00
52319;BME280;38258;51.148;14.068;2023-11-21T00:35:25;97612.97;;;3.59;100.00
52319;BME280;38258;51.148;14.068;2023-11-21T00:37:54;97608.66;;;3.58;100.00
52319;BME280;38258;51.148;14.068;2023-11-21T00:40:21;97612.00;;;3.66;100.00
52319;BME280;38258;51.148;14.068;2023-11-21T00:42:48;97611.94;;;3.69;100.00
52319;BME280;38258;51.148;14.068;2023-11-21T00:45:15;97610.19;;;3.74;100.00
52319;BME280;38258;51.148;14.068;2023-11-21T00:47:42;97606.56;;;3.86;100.00
52319;BME280;38258;51.148;14.068;2023-11-21T00:50:09;97615.97;;;3.90;100.00
52319;BME280;38258;51.148;14.068;2023-11-21T00:52:36;97615.03;;;3.98;100.00
52319;BME280;38258;51.148;14.068;2023-11-21T00:55:05;97614.88;;;4.07;100.00
52319;BME280;38258;51.148;14.068;2023-11-21T00:57:33;97614.81;;;4.13;100.00
52319;BME280;38258;51.148;14.068;2023-11-21T01:00:00;97613.75;;;4.27;100.00
52319;BME280;38258;51.148;14.068;2023-11-21T01:02:26;97618.84;;;4.31;100.00
52319;BME280;38258;51.148;14.068;2023-11-21T01:04:54;97620.38;;;4.43;100.00
52319;BME280;38258;51.148;14.068;2023-11-21T01:07:21;97624.53;;;4.53;100.00
52319;BME280;38258;51.148;14.068;2023-11-21T01:09:48;97622.66;;;4.63;100.00
52319;BME280;38258;51.148;14.068;2023-11-21T01:12:16;97619.69;;;4.85;100.00
52319;BME280;38258;51.148;14.068;2023-11-21T01:14:42;97615.22;;;4.93;100.00
52319;BME280;38258;51.148;14.068;2023-11-21T01:17:11;97617.75;;;4.98;100.00
52319;BME280;38258;51.148;14.068;2023-11-21T01:19:38;97627.88;;;5.11;100.00
52319;BME280;38258;51.148;14.068;2023-11-21T01:22:04;97627.75;;;5.17;100.00
52319;BME280;38258;51.148;14.068;2023-11-21T01:24:31;97636.41;;;5.16;100.00
52319;BME280;38258;51.148;14.068;2023-11-21T01:26:58;97629.47;;;5.18;100.00
52319;BME280;38258;51.148;14.068;2023-11-21T01:29:26;97633.63;;;5.27;100.00
52319;BME280;38258;51.148;14.068;2023-11-21T01:31:55;97631.81;;;5.30;100.00
52319;BME280;38258;51.148;14.068;2023-11-21T01:34:23;97623.03;;;5.37;100.00
52319;BME280;38258;51.148;14.068;2023-11-21T01:36:50;97623.81;;;5.41;100.00
52319;BME280;38258;51.148;14.068;2023-11-21T01:39:16;97627.06;;;5.52;100.00
52319;BME280;38258;51.148;14.068;2023-11-21T01:41:49;97623.56;;;5.55;100.00
52319;BME280;38258;51.148;14.068;2023-11-21T01:44:15;97627.94;;;5.53;100.00
52319;BME280;38258;51.148;14.068;2023-11-21T01:46:43;97630.41;;;5.59;100.00
52319;BME280;38258;51.148;14.068;2023-11-21T01:49:11;97635.56;;;5.61;100.00
52319;BME280;38258;51.148;14.068;2023-11-21T01:51:38;97620.81;;;5.63;100.00
52319;BME280;38258;51.148;14.068;2023-11-21T01:54:06;97628.53;;;5.66;100.00
52319;BME280;38258;51.148;14.068;2023-11-21T01:56:33;97631.03;;;5.71;100.00
52319;BME280;38258;51.148;14.068;2023-11-21T01:59:00;97630.16;;;5.70;100.00
52319;BME280;38258;51.148;14.068;2023-11-21T02:01:27;97634.47;;;5.71;100.00
52319;BME280;38258;51.148;14.068;2023-11-21T02:03:55;97625.69;;;5.78;100.00
52319;BME280;38258;51.148;14.068;2023-11-21T02:06:22;97634.31;;;5.79;100.00
52319;BME280;38258;51.148;14.068;2023-11-21T02:08:52;97630.00;;;5.78;100.00
52319;BME280;38258;51.148;14.068;2023-11-21T02:11:18;97630.88;;;5.77;100.00
52319;BME280;38258;51.148;14.068;2023-11-21T02:13:46;97625.69;;;5.78;100.00
52319;BME280;38258;51.148;14.068;2023-11-21T02:16:15;97632.56;;;5.81;100.00
52319;BME280;38258;51.148;14.068;2023-11-21T02:18:42;97635.91;;;5.85;100.00
52319;BME280;38258;51.148;14.068;2023-11-21T02:21:10;97634.22;;;5.84;100.00
52319;BME280;38258;51.148;14.068;2023-11-21T02:23:39;97642.03;;;5.82;100.00
52319;BME280;38258;51.148;14.068;2023-11-21T02:26:09;97629.91;;;5.83;100.00
52319;BME280;38258;51.148;14.068;2023-11-21T02:28:36;97635.91;;;5.85;100.00
52319;BME280;38258;51.148;14.068;2023-11-21T02:31:04;97630.78;;;5.82;100.00
52319;BME280;38258;51.148;14.068;2023-11-21T02:33:32;97635.09;;;5.83;100.00
52319;BME280;38258;51.148;14.068;2023-11-21T02:35:59;97630.69;;;5.86;100.00
52319;BME280;38258;51.148;14.068;2023-11-21T02:38:26;97640.28;;;5.84;100.00
52319;BME280;38258;51.148;14.068;2023-11-21T02:40:55;97641.97;;;5.85;100.00
52319;BME280;38258;51.148;14.068;2023-11-21T02:43:22;97644.53;;;5.87;100.00
52319;BME280;38258;51.148;14.068;2023-11-21T02:45:49;97647.97;;;5.87;100.00
52319;BME280;38258;51.148;14.068;2023-11-21T02:48:15;97641.91;;;5.88;100.00
52319;BME280;38258;51.148;14.068;2023-11-21T02:50:42;97640.19;;;5.87;100.00
52319;BME280;38258;51.148;14.068;2023-11-21T02:53:09;97639.38;;;5.85;100.00
52319;BME280;38258;51.148;14.068;2023-11-21T02:55:36;97647.03;;;5.91;100.00
52319;BME280;38258;51.148;14.068;2023-11-21T02:58:04;97643.59;;;5.91;100.00
52319;BME280;38258;51.148;14.068;2023-11-21T03:00:31;97639.31;;;5.88;100.00
52319;BME280;38258;51.148;14.068;2023-11-21T03:02:59;97643.59;;;5.89;100.00
52319;BME280;38258;51.148;14.068;2023-11-21T03:05:26;97641.03;;;5.88;100.00
52319;BME280;38258;51.148;14.068;2023-11-21T03:07:54;97648.69;;;5.96;100.00
52319;BME280;38258;51.148;14.068;2023-11-21T03:10:21;97643.69;;;5.86;100.00
52319;BME280;38258;51.148;14.068;2023-11-21T03:12:48;97646.22;;;5.88;100.00
52319;BME280;38258;51.148;14.068;2023-11-21T03:15:17;97649.75;;;5.85;100.00
52319;BME280;38258;51.148;14.068;2023-11-21T03:17:43;97653.25;;;5.84;100.00
52319;BME280;38258;51.148;14.068;2023-11-21T03:20:11;97649.06;;;5.77;100.00
52319;BME280;38258;51.148;14.068;2023-11-21T03:22:39;97652.63;;;5.71;100.00
52319;BME280;38258;51.148;14.068;2023-11-21T03:25:07;97645.78;;;5.69;100.00
52319;BME280;38258;51.148;14.068;2023-11-21T03:27:36;97645.53;;;5.81;100.00
52319;BME280;38258;51.148;14.068;2023-11-21T03:30:05;97652.53;;;5.76;100.00
52319;BME280;38258;51.148;14.068;2023-11-21T03:32:34;97659.41;;;5.78;100.00
52319;BME280;38258;51.148;14.068;2023-11-21T03:35:01;97650.72;;;5.81;100.00
52319;BME280;38258;51.148;14.068;2023-11-21T03:37:29;97656.69;;;5.85;100.00
52319;BME280;38258;51.148;14.068;2023-11-21T03:39:56;97657.47;;;5.88;100.00
52319;BME280;38258;51.148;14.068;2023-11-21T03:42:22;97658.34;;;5.89;100.00
52319;BME280;38258;51.148;14.068;2023-11-21T03:44:51;97659.91;;;5.96;100.00
52319;BME280;38258;51.148;14.068;2023-11-21T03:47:17;97659.97;;;5.93;100.00
52319;BME280;38258;51.148;14.068;2023-11-21T03:49:46;97660.78;;;5.97;100.00
52319;BME280;38258;51.148;14.068;2023-11-21T03:52:15;97664.19;;;5.99;100.00
52319;BME280;38258;51.148;14.068;2023-11-21T03:54:42;97666.00;;;5.95;100.00
52319;BME280;38258;51.148;14.068;2023-11-21T03:57:09;97654.88;;;5.88;100.00
52319;BME280;38258;51.148;14.068;2023-11-21T03:59:39;97665.13;;;5.94;100.00
52319;BME280;38258;51.148;14.068;2023-11-21T04:02:06;97672.00;;;5.97;100.00
52319;BME280;38258;51.148;14.068;2023-11-21T04:04:33;97676.31;;;5.98;100.00
52319;BME280;38258;51.148;14.068;2023-11-21T04:07:01;97678.06;;;5.98;100.00
52319;BME280;38258;51.148;14.068;2023-11-21T04:09:28;97673.66;;;6.01;100.00
52319;BME280;38258;51.148;14.068;2023-11-21T04:11:55;97672.00;;;5.97;100.00
52319;BME280;38258;51.148;14.068;2023-11-21T04:14:22;97672.78;;;6.01;100.00
52319;BME280;38258;51.148;14.068;2023-11-21T04:16:49;97674.69;;;5.92;100.00
52319;BME280;38258;51.148;14.068;2023-11-21T04:19:15;97673.22;;;5.80;100.00
52319;BME280;38258;51.148;14.068;2023-11-21T04:21:42;97670.59;;;5.82;100.00
52319;BME280;38258;51.148;14.068;2023-11-21T04:24:10;97675.78;;;5.82;100.00
52319;BME280;38258;51.148;14.068;2023-11-21T04:26:37;97681.22;;;5.70;100.00
52319;BME280;38258;51.148;14.068;2023-11-21T04:29:04;97683.81;;;5.70;100.00
52319;BME280;38258;51.148;14.068;2023-11-21T04:31:31;97679.69;;;5.58;100.00
52319;BME280;38258;51.148;14.068;2023-11-21T04:33:58;97692.66;;;5.59;100.00
52319;BME280;38258;51.148;14.068;2023-11-21T04:36:25;97686.72;;;5.54;100.00
52319;BME280;38258;51.148;14.068;2023-11-21T04:38:51;97693.59;;;5.55;100.00
52319;BME280;38258;51.148;14.068;2023-11-21T04:41:20;97687.69;;;5.48;100.00
52319;BME280;38258;51.148;14.068;2023-11-21T04:43:46;97687.63;;;5.50;100.00
52319;BME280;38258;51.148;14.068;2023-11-21T04:46:13;97696.31;;;5.49;100.00
52319;BME280;38258;51.148;14.068;2023-11-21T04:48:40;97698.00;;;5.50;100.00
52319;BME280;38258;51.148;14.068;2023-11-21T04:51:07;97702.28;;;5.52;100.00
52319;BME280;38258;51.148;14.068;2023-11-21T04:53:34;97703.13;;;5.55;100.00
52319;BME280;38258;51.148;14.068;2023-11-21T04:56:01;97703.94;;;5.57;100.00
52319;BME280;38258;51.148;14.068;2023-11-21T04:58:31;97699.69;;;5.54;100.00
52319;BME280;38258;51.148;14.068;2023-11-21T05:00:58;97703.09;;;5.56;100.00
52319;BME280;38258;51.148;14.068;2023-11-21T05:03:25;97697.84;;;5.58;100.00
52319;BME280;38258;51.148;14.068;2023-11-21T05:05:52;97710.00;;;5.57;100.00
52319;BME280;38258;51.148;14.068;2023-11-21T05:08:18;97707.34;;;5.60;100.00
52319;BME280;38258;51.148;14.068;2023-11-21T05:10:45;97711.56;;;5.66;100.00
52319;BME280;38258;51.148;14.068;2023-11-21T05:13:12;97709.03;;;5.63;100.00
52319;BME280;38258;51.148;14.068;2023-11-21T05:15:44;97720.06;;;5.73;100.00
52319;BME280;38258;51.148;14.068;2023-11-21T05:18:10;97722.66;;;5.74;100.00
52319;BME280;38258;51.148;14.068;2023-11-21T05:20:39;97717.47;;;5.74;100.00
52319;BME280;38258;51.148;14.068;2023-11-21T05:23:06;97721.75;;;5.75;100.00
52319;BME280;38258;51.148;14.068;2023-11-21T05:25:33;97725.19;;;5.76;100.00
52319;BME280;38258;51.148;14.068;2023-11-21T05:28:00;97718.22;;;5.78;100.00
52319;BME280;38258;51.148;14.068;2023-11-21T05:30:28;97727.84;;;5.74;100.00
52319;BME280;38258;51.148;14.068;2023-11-21T05:32:56;97720.88;;;5.76;100.00
52319;BME280;38258;51.148;14.068;2023-11-21T05:35:23;97723.78;;;5.59;100.00
52319;BME280;38258;51.148;14.068;2023-11-21T05:37:49;97726.22;;;5.67;100.00
52319;BME280;38258;51.148;14.068;2023-11-21T05:40:16;97729.63;;;5.71;100.00
52319;BME280;38258;51.148;14.068;2023-11-21T05:42:43;97724.53;;;5.66;100.00
52319;BME280;38258;51.148;14.068;2023-11-21T05:45:10;97728.84;;;5.65;100.00
52319;BME280;38258;51.148;14.068;2023-11-21T05:47:38;97733.94;;;5.70;100.00
52319;BME280;38258;51.148;14.068;2023-11-21T05:50:08;97734.91;;;5.64;100.00
52319;BME280;38258;51.148;14.068;2023-11-21T05:52:36;97741.75;;;5.70;100.00
52319;BME280;38258;51.148;14.068;2023-11-21T05:55:03;97735.94;;;5.57;100.00
52319;BME280;38258;51.148;14.068;2023-11-21T05:57:32;97739.41;;;5.56;100.00
52319;BME280;38258;51.148;14.068;2023-11-21T06:00:03;97738.47;;;5.59;100.00
52319;BME280;38258;51.148;14.068;2023-11-21T06:02:37;97741.81;;;5.67;100.00
52319;BME280;38258;51.148;14.068;2023-11-21T06:05:04;97735.03;;;5.60;100.00
52319;BME280;38258;51.148;14.068;2023-11-21T06:07:33;97738.63;;;5.52;100.00
52319;BME280;38258;51.148;14.068;2023-11-21T06:10:01;97747.16;;;5.58;100.00
52319;BME280;38258;51.148;14.068;2023-11-21T06:12:28;97746.38;;;5.54;100.00
52319;BME280;38258;51.148;14.068;2023-11-21T06:14:55;97748.84;;;5.59;100.00
52319;BME280;38258;51.148;14.068;2023-11-21T06:17:21;97753.94;;;5.65;100.00
52319;BME280;38258;51.148;14.068;2023-11-21T06:19:50;97753.09;;;5.64;100.00
52319;BME280;38258;51.148;14.068;2023-11-21T06:22:18;97758.25;;;5.68;100.00
52319;BME280;38258;51.148;14.068;2023-11-21T06:24:46;97754.69;;;5.72;100.00
52319;BME280;38258;51.148;14.068;2023-11-21T06:27:13;97758.25;;;5.66;100.00
52319;BME280;38258;51.148;14.068;2023-11-21T06:29:40;97767.94;;;5.56;100.00
52319;BME280;38258;51.148;14.068;2023-11-21T06:32:07;97770.47;;;5.61;100.00
52319;BME280;38258;51.148;14.068;2023-11-21T06:34:34;97772.13;;;5.65;100.00
52319;BME280;38258;51.148;14.068;2023-11-21T06:37:01;97777.31;;;5.63;100.00
52319;BME280;38258;51.148;14.068;2023-11-21T06:39:29;97774.72;;;5.63;100.00
52319;BME280;38258;51.148;14.068;2023-11-21T06:41:57;97781.63;;;5.64;100.00
52319;BME280;38258;51.148;14.068;2023-11-21T06:44:26;97779.03;;;5.64;100.00
52319;BME280;38258;51.148;14.068;2023-11-21T06:46:53;97768.50;;;5.72;100.00
52319;BME280;38258;51.148;14.068;2023-11-21T06:49:20;97779.84;;;5.68;100.00
52319;BME280;38258;51.148;14.068;2023-11-21T06:51:46;97780.63;;;5.72;100.00
52319;BME280;38258;51.148;14.068;2023-11-21T06:54:13;97788.44;;;5.72;100.00
52319;BME280;38258;51.148;14.068;2023-11-21T06:56:40;97787.69;;;5.63;100.00
52319;BME280;38258;51.148;14.068;2023-11-21T06:59:08;97779.16;;;5.57;100.00
52319;BME280;38258;51.148;14.068;2023-11-21T07:01:36;97785.72;;;5.78;100.00
52319;BME280;38258;51.148;14.068;2023-11-21T07:04:04;97786.78;;;5.66;100.00
52319;BME280;38258;51.148;14.068;2023-11-21T07:06:31;97785.03;;;5.66;100.00
52319;BME280;38258;51.148;14.068;2023-11-21T07:08:58;97789.22;;;5.75;100.00
52319;BME280;38258;51.148;14.068;2023-11-21T07:11:26;97790.13;;;5.74;100.00
52319;BME280;38258;51.148;14.068;2023-11-21T07:13:53;97796.22;;;5.72;100.00
52319;BME280;38258;51.148;14.068;2023-11-21T07:16:21;97790.38;;;5.59;100.00
52319;BME280;38258;51.148;14.068;2023-11-21T07:18:49;97804.06;;;5.67;100.00
52319;BME280;38258;51.148;14.068;2023-11-21T07:21:16;97802.25;;;5.72;100.00
52319;BME280;38258;51.148;14.068;2023-11-21T07:23:43;97812.66;;;5.71;100.00
52319;BME280;38258;51.148;14.068;2023-11-21T07:26:09;97806.72;;;5.64;100.00
52319;BME280;38258;51.148;14.068;2023-11-21T07:28:36;97800.72;;;5.62;100.00
52319;BME280;38258;51.148;14.068;2023-11-21T07:31:03;97807.63;;;5.63;100.00
52319;BME280;38258;51.148;14.068;2023-11-21T07:33:31;97808.44;;;5.65;100.00
52319;BME280;38258;51.148;14.068;2023-11-21T07:35:58;97813.59;;;5.66;100.00
52319;BME280;38258;51.148;14.068;2023-11-21T07:38:25;97810.91;;;5.73;100.00
52319;BME280;38258;51.148;14.068;2023-11-21T07:40:53;97815.34;;;5.64;100.00
52319;BME280;38258;51.148;14.068;2023-11-21T07:43:20;97823.13;;;5.64;100.00
52319;BME280;38258;51.148;14.068;2023-11-21T07:45:47;97823.94;;;5.70;100.00
52319;BME280;38258;51.148;14.068;2023-11-21T07:48:14;97823.00;;;5.74;100.00
52319;BME280;38258;51.148;14.068;2023-11-21T07:50:42;97827.38;;;5.70;100.00
52319;BME280;38258;51.148;14.068;2023-11-21T07:53:09;97826.25;;;5.84;100.00
52319;BME280;38258;51.148;14.068;2023-11-21T07:55:36;97825.22;;;5.94;100.00
52319;BME280;38258;51.148;14.068;2023-11-21T07:58:03;97831.31;;;5.91;100.00
52319;BME280;38258;51.148;14.068;2023-11-21T08:00:30;97822.78;;;5.85;100.00
52319;BME280;38258;51.148;14.068;2023-11-21T08:02:56;97825.94;;;6.02;100.00
52319;BME280;38258;51.148;14.068;2023-11-21T08:05:22;97823.59;;;5.88;100.00
52319;BME280;38258;51.148;14.068;2023-11-21T08:07:51;97825.44;;;5.83;100.00
52319;BME280;38258;51.148;14.068;2023-11-21T08:10:18;97828.66;;;5.94;100.00
52319;BME280;38258;51.148;14.068;2023-11-21T08:12:46;97834.00;;;5.87;100.00
52319;BME280;38258;51.148;14.068;2023-11-21T08:15:13;97826.13;;;5.91;100.00
52319;BME280;38258;51.148;14.068;2023-11-21T08:17:40;97830.50;;;5.88;100.00
52319;BME280;38258;51.148;14.068;2023-11-21T08:20:08;97830.44;;;5.92;100.00
52319;BME280;38258;51.148;14.068;2023-11-21T08:22:36;97827.84;;;5.92;100.00
52319;BME280;38258;51.148;14.068;2023-11-21T08:25:05;97826.72;;;6.07;100.00
52319;BME280;38258;51.148;14.068;2023-11-21T08:27:31;97829.34;;;6.06;100.00
52319;BME280;38258;51.148;14.068;2023-11-21T08:29:58;97829.97;;;6.19;100.00
52319;BME280;38258;51.148;14.068;2023-11-21T08:32:25;97826.72;;;6.07;100.00
52319;BME280;38258;51.148;14.068;2023-11-21T08:34:52;97838.22;;;5.92;100.00
52319;BME280;38258;51.148;14.068;2023-11-21T08:37:18;97836.34;;;6.01;100.00
52319;BME280;38258;51.148;14.068;2023-11-21T08:39:47;97844.22;;;5.94;100.00
52319;BME280;38258;51.148;14.068;2023-11-21T08:42:15;97843.25;;;6.03;100.00
52319;BME280;38258;51.148;14.068;2023-11-21T08:44:43;97848.53;;;5.97;100.00
52319;BME280;38258;51.148;14.068;2023-11-21T08:47:10;97849.38;;;5.98;100.00
52319;BME280;38258;51.148;14.068;2023-11-21T08:49:36;97848.59;;;5.92;100.00
52319;BME280;38258;51.148;14.068;2023-11-21T08:52:03;97850.19;;;6.01;100.00
52319;BME280;38258;51.148;14.068;2023-11-21T08:54:30;97850.16;;;6.04;100.00
52319;BME280;38258;51.148;14.068;2023-11-21T08:56:57;97846.81;;;5.94;100.00
52319;BME280;38258;51.148;14.068;2023-11-21T08:59:26;97851.19;;;5.92;100.00
52319;BME280;38258;51.148;14.068;2023-11-21T09:01:52;97852.91;;;5.93;100.00
52319;BME280;38258;51.148;14.068;2023-11-21T09:04:19;97850.22;;;5.98;100.00
52319;BME280;38258;51.148;14.068;2023-11-21T09:06:46;97848.91;;;6.24;100.00
52319;BME280;38258;51.148;14.068;2023-11-21T09:09:12;97852.50;;;6.17;100.00
52319;BME280;38258;51.148;14.068;2023-11-21T09:11:39;97863.84;;;6.13;100.00
52319;BME280;38258;51.148;14.068;2023-11-21T09:14:06;97863.53;;;6.28;100.00
52319;BME280;38258;51.148;14.068;2023-11-21T09:16:35;97861.75;;;6.32;100.00
52319;BME280;38258;51.148;14.068;2023-11-21T09:19:02;97867.66;;;6.40;100.00
52319;BME280;38258;51.148;14.068;2023-11-21T09:21:30;97864.41;;;6.29;100.00
52319;BME280;38258;51.148;14.068;2023-11-21T09:23:57;97880.88;;;6.28;100.00
52319;BME280;38258;51.148;14.068;2023-11-21T09:26:24;97878.38;;;6.23;100.00
52319;BME280;38258;51.148;14.068;2023-11-21T09:28:51;97881.28;;;6.06;100.00
52319;BME280;38258;51.148;14.068;2023-11-21T09:31:18;97881.28;;;5.54;100.00
52319;BME280;38258;51.148;14.068;2023-11-21T09:33:49;97876.34;;;5.37;100.00
52319;BME280;38258;51.148;14.068;2023-11-21T09:36:16;97887.78;;;5.23;100.00
52319;BME280;38258;51.148;14.068;2023-11-21T09:38:43;97881.94;;;5.11;100.00
52319;BME280;38258;51.148;14.068;2023-11-21T09:41:15;97899.81;;;5.29;100.00
52319;BME280;38258;51.148;14.068;2023-11-21T09:43:47;97897.56;;;5.04;100.00
52319;BME280;38258;51.148;14.068;2023-11-21T09:46:15;97900.19;;;5.01;100.00
52319;BME280;38258;51.148;14.068;2023-11-21T09:48:50;97908.44;;;4.64;100.00
52319;BME280;38258;51.148;14.068;2023-11-21T09:51:19;97913.94;;;4.37;100.00
52319;BME280;38258;51.148;14.068;2023-11-21T09:53:50;97920.81;;;4.38;100.00
52319;BME280;38258;51.148;14.068;2023-11-21T09:56:18;97913.19;;;4.28;100.00
52319;BME280;38258;51.148;14.068;2023-11-21T09:58:51;97920.03;;;4.30;100.00
52319;BME280;38258;51.148;14.068;2023-11-21T10:01:18;97918.44;;;4.18;100.00
52319;BME280;38258;51.148;14.068;2023-11-21T10:03:45;97930.38;;;4.30;100.00
52319;BME280;38258;51.148;14.068;2023-11-21T10:06:14;97931.25;;;4.31;100.00
52319;BME280;38258;51.148;14.068;2023-11-21T10:08:43;97923.56;;;4.21;100.00
52319;BME280;38258;51.148;14.068;2023-11-21T10:11:10;97934.00;;;4.14;100.00
52319;BME280;38258;51.148;14.068;2023-11-21T10:13:40;97938.34;;;4.12;100.00
52319;BME280;38258;51.148;14.068;2023-11-21T10:16:09;97937.69;;;3.91;100.00
52319;BME280;38258;51.148;14.068;2023-11-21T10:18:37;97935.84;;;4.05;100.00
52319;BME280;38258;51.148;14.068;2023-11-21T10:21:06;97931.50;;;4.06;100.00
52319;BME280;38258;51.148;14.068;2023-11-21T10:23:34;97927.84;;;4.29;100.00
52319;BME280;38258;51.148;14.068;2023-11-21T10:26:01;97935.75;;;4.12;100.00
52319;BME280;38258;51.148;14.068;2023-11-21T10:28:27;97940.22;;;3.97;100.00
52319;BME280;38258;51.148;14.068;2023-11-21T10:30:55;97940.13;;;4.05;100.00
52319;BME280;38258;51.148;14.068;2023-11-21T10:33:27;97946.72;;;4.37;100.00
52319;BME280;38258;51.148;14.068;2023-11-21T10:35:54;97949.38;;;4.32;100.00
52319;BME280;38258;51.148;14.068;2023-11-21T10:38:21;97951.31;;;4.07;100.00
52319;BME280;38258;51.148;14.068;2023-11-21T10:40:51;97954.84;;;4.00;100.00
52319;BME280;38258;51.148;14.068;2023-11-21T10:43:24;97954.81;;;4.04;100.00
52319;BME280;38258;51.148;14.068;2023-11-21T10:45:51;97959.06;;;4.12;100.00
52319;BME280;38258;51.148;14.068;2023-11-21T10:48:18;97960.63;;;4.30;100.00
52319;BME280;38258;51.148;14.068;2023-11-21T10:50:46;97967.13;;;3.77;100.00
52319;BME280;38258;51.148;14.068;2023-11-21T10:53:12;97968.72;;;3.95;100.00
52319;BME280;38258;51.148;14.068;2023-11-21T10:55:39;97970.38;;;3.98;100.00
52319;BME280;38258;51.148;14.068;2023-11-21T10:58:10;97966.09;;;3.97;100.00
52319;BME280;38258;51.148;14.068;2023-11-21T11:00:40;97967.69;;;4.12;100.00
52319;BME280;38258;51.148;14.068;2023-11-21T11:03:06;97970.44;;;3.92;100.00
52319;BME280;38258;51.148;14.068;2023-11-21T11:05:40;97972.19;;;3.90;100.00
52319;BME280;38258;51.148;14.068;2023-11-21T11:08:12;97971.44;;;3.74;100.00
52319;BME280;38258;51.148;14.068;2023-11-21T11:10:44;97974.81;;;3.85;100.00
52319;BME280;38258;51.148;14.068;2023-11-21T11:13:13;97977.50;;;3.74;100.00
52319;BME280;38258;51.148;14.068;2023-11-21T11:15:41;97988.59;;;3.87;100.00
52319;BME280;38258;51.148;14.068;2023-11-21T11:18:09;97978.44;;;3.61;100.00
52319;BME280;38258;51.148;14.068;2023-11-21T11:20:37;97986.97;;;3.75;100.00
52319;BME280;38258;51.148;14.068;2023-11-21T11:23:24;97986.13;;;3.73;100.00
52319;BME280;38258;51.148;14.068;2023-11-21T11:26:07;97986.94;;;3.77;100.00
52319;BME280;38258;51.148;14.068;2023-11-21T11:28:44;97990.31;;;3.88;100.00
52319;BME280;38258;51.148;14.068;2023-11-21T11:31:23;97992.16;;;3.75;100.00
52319;BME280;38258;51.148;14.068;2023-11-21T11:33:59;97992.91;;;3.88;100.00
52319;BME280;38258;51.148;14.068;2023-11-21T11:36:33;97995.38;;;4.02;100.00
52319;BME280;38258;51.148;14.068;2023-11-21T11:39:01;97989.50;;;3.81;100.00
52319;BME280;38258;51.148;14.068;2023-11-21T11:41:31;97995.56;;;3.76;100.00
52319;BME280;38258;51.148;14.068;2023-11-21T11:44:01;97997.22;;;3.85;100.00
52319;BME280;38258;51.148;14.068;2023-11-21T11:46:41;97999.09;;;3.68;100.00
52319;BME280;38258;51.148;14.068;2023-11-21T11:49:08;97995.63;;;3.68;100.00
52319;BME280;38258;51.148;14.068;2023-11-21T11:51:35;98007.03;;;3.41;100.00
52319;BME280;38258;51.148;14.068;2023-11-21T11:54:02;98013.84;;;3.54;100.00
52319;BME280;38258;51.148;14.068;2023-11-21T11:56:32;98016.47;;;3.45;100.00
52319;BME280;38258;51.148;14.068;2023-11-21T11:59:02;98019.19;;;3.18;100.00
52319;BME280;38258;51.148;14.068;2023-11-21T12:01:30;98020.88;;;3.21;100.00
52319;BME280;38258;51.148;14.068;2023-11-21T12:04:26;98030.44;;;3.09;100.00
52319;BME280;38258;51.148;14.068;2023-11-21T12:07:01;98027.88;;;3.02;100.00
52319;BME280;38258;51.148;14.068;2023-11-21T12:09:30;98027.91;;;2.92;100.00
52319;BME280;38258;51.148;14.068;2023-11-21T12:11:58;98027.03;;;2.89;100.00
52319;BME280;38258;51.148;14.068;2023-11-21T12:14:26;98037.41;;;2.81;100.00
52319;BME280;38258;51.148;14.068;2023-11-21T12:16:54;98033.06;;;2.88;100.00
52319;BME280;38258;51.148;14.068;2023-11-21T12:19:21;98034.84;;;2.65;100.00
52319;BME280;38258;51.148;14.068;2023-11-21T12:21:49;98035.66;;;2.83;100.00
52319;BME280;38258;51.148;14.068;2023-11-21T12:24:16;98038.31;;;2.66;100.00
52319;BME280;38258;51.148;14.068;2023-11-21T12:26:43;98046.06;;;2.69;100.00
52319;BME280;38258;51.148;14.068;2023-11-21T12:29:11;98041.75;;;2.66;100.00
52319;BME280;38258;51.148;14.068;2023-11-21T12:31:39;98052.06;;;2.79;100.00
52319;BME280;38258;51.148;14.068;2023-11-21T12:34:06;98056.34;;;2.85;100.00
52319;BME280;38258;51.148;14.068;2023-11-21T12:36:37;98061.53;;;2.69;100.00
52319;BME280;38258;51.148;14.068;2023-11-21T12:39:04;98072.69;;;2.91;100.00
52319;BME280;38258;51.148;14.068;2023-11-21T12:41:34;98072.69;;;2.88;100.00
52319;BME280;38258;51.148;14.068;2023-11-21T12:44:01;98066.69;;;2.71;100.00
52319;BME280;38258;51.148;14.068;2023-11-21T12:46:28;98072.75;;;2.46;100.00
52319;BME280;38258;51.148;14.068;2023-11-21T12:48:59;98080.47;;;2.71;100.00
52319;BME280;38258;51.148;14.068;2023-11-21T12:51:26;98072.72;;;2.57;100.00
52319;BME280;38258;51.148;14.068;2023-11-21T12:53:55;98072.72;;;2.57;100.00